createdAt,value
2019-01-21T01:20:43.000Z,76.45
2019-01-21T01:51:11.619Z,74.66
2019-01-21T01:52:30.086Z,75.13
2019-01-21T03:18:09.538Z,79.00
2019-01-21T03:27:12.667Z,80.69
2019-01-21T04:19:42.728Z,81.26
2019-01-21T05:13:45.506Z,86.91
2019-01-21T05:15:03.608Z,86.91
2019-01-21T05:22:08.980Z,89.08
2019-01-21T05:22:55.990Z,87.48
2019-01-21T05:59:07.619Z,83.52
2019-01-21T06:02:11.054Z,84.75
2019-01-21T06:06:35.089Z,85.97
2019-01-21T06:06:59.116Z,86.91
2019-01-21T06:08:16.798Z,86.91
2019-01-21T06:35:01.623Z,85.92
2019-01-21T06:36:14.738Z,85.78
2019-01-21T06:40:01.511Z,87.29
2019-01-21T06:44:12.564Z,86.82
2019-01-21T07:05:28.709Z,82.10
2019-01-21T07:07:51.756Z,83.05
2019-01-21T07:08:46.786Z,84.18
2019-01-21T07:09:48.051Z,85.03
2019-01-21T07:10:50.262Z,84.88
2019-01-21T07:11:46.862Z,84.79
2019-01-21T07:12:48.785Z,85.17
2019-01-21T07:13:47.003Z,83.84
2019-01-21T07:14:50.766Z,83.84
2019-01-21T07:15:51.667Z,85.36
2019-01-21T07:16:49.937Z,86.87
2019-01-21T07:17:47.726Z,88.09
2019-01-21T07:18:49.765Z,87.71
2019-01-21T07:19:54.811Z,87.34
2019-01-21T07:20:48.271Z,87.90
2019-01-21T07:21:50.310Z,87.52
2019-01-21T07:22:49.798Z,86.77
2019-01-21T07:23:51.220Z,86.02
2019-01-21T07:24:48.928Z,86.21
2019-01-21T07:26:13.215Z,86.77
2019-01-21T07:26:51.266Z,86.87
2019-01-21T07:27:51.730Z,86.77
2019-01-21T07:28:49.574Z,87.52
2019-01-21T07:29:53.214Z,87.34
2019-01-21T07:31:07.216Z,87.99
2019-01-21T07:32:12.760Z,89.69
2019-01-21T07:32:51.218Z,90.36
2019-01-21T07:33:52.219Z,90.36
2019-01-21T07:34:52.263Z,89.79
2019-01-21T07:35:53.223Z,90.92
2019-01-21T07:36:56.716Z,91.49
2019-01-21T07:37:55.733Z,91.30
2019-01-21T07:38:51.729Z,90.45
2019-01-21T07:40:13.261Z,88.75
2019-01-21T07:40:51.419Z,87.90
2019-01-21T07:41:54.258Z,88.28
2019-01-21T07:42:53.760Z,88.56
2019-01-21T07:43:56.758Z,89.13
2019-01-21T07:44:55.757Z,90.83
2019-01-21T07:45:52.256Z,89.79
2019-01-21T07:47:09.243Z,88.18
2019-01-21T07:47:52.705Z,89.98
2019-01-21T07:48:54.263Z,90.07
2019-01-21T07:49:53.733Z,89.03
2019-01-21T07:50:55.721Z,89.13
2019-01-21T07:51:53.066Z,87.52
2019-01-21T07:52:53.285Z,87.81
2019-01-21T07:53:55.821Z,88.56
2019-01-21T07:55:09.263Z,87.90
2019-01-21T07:55:58.087Z,87.52
2019-01-21T07:56:57.759Z,88.28
2019-01-21T07:57:55.021Z,89.22
2019-01-21T07:58:56.735Z,88.28
2019-01-21T08:00:10.261Z,87.43
2019-01-21T08:00:57.256Z,88.18
2019-01-21T08:01:58.844Z,87.43
2019-01-21T08:03:02.805Z,86.96
2019-01-21T08:03:58.764Z,86.87
2019-01-21T08:04:56.707Z,87.24
2019-01-21T08:05:59.214Z,89.03
2019-01-21T08:06:58.588Z,87.90
2019-01-21T08:07:58.065Z,87.99
2019-01-21T08:08:57.779Z,87.34
2019-01-21T08:09:58.802Z,88.18
2019-01-21T08:10:57.759Z,89.41
2019-01-21T08:12:00.858Z,88.28
2019-01-21T08:12:58.266Z,89.22
2019-01-21T08:14:19.213Z,88.94
2019-01-21T08:14:56.918Z,88.75
2019-01-21T08:15:58.725Z,88.37
2019-01-21T08:17:00.073Z,89.13
2019-01-21T08:17:59.466Z,89.69
2019-01-21T08:18:57.834Z,91.02
2019-01-21T08:19:59.992Z,90.92
2019-01-21T08:21:00.717Z,90.45
2019-01-21T08:22:01.784Z,92.24
2019-01-21T08:23:00.261Z,93.28
2019-01-21T08:24:00.572Z,92.33
2019-01-21T08:24:58.766Z,92.14
2019-01-21T08:26:01.466Z,91.39
2019-01-21T08:27:00.757Z,91.39
2019-01-21T08:28:02.761Z,91.02
2019-01-21T08:29:01.323Z,91.20
2019-01-21T08:29:59.554Z,91.67
2019-01-21T08:31:01.258Z,92.33
2019-01-21T08:32:15.757Z,94.32
2019-01-21T08:33:02.711Z,94.69
2019-01-21T08:34:01.758Z,93.28
2019-01-21T08:35:01.119Z,91.39
2019-01-21T08:36:22.573Z,90.83
2019-01-21T08:37:00.633Z,91.58
2019-01-21T08:38:02.761Z,91.20
2019-01-21T08:39:00.963Z,91.35
2019-01-21T08:40:04.219Z,92.00
2019-01-21T08:41:06.077Z,93.32
2019-01-21T08:42:03.541Z,93.70
2019-01-21T08:43:05.885Z,95.21
2019-01-21T08:44:02.751Z,95.92
2019-01-21T08:45:03.797Z,95.31
2019-01-21T08:46:04.214Z,93.42
2019-01-21T08:47:05.219Z,92.76
2019-01-21T08:48:11.267Z,94.27
2019-01-21T08:49:03.249Z,96.63
2019-01-21T08:50:10.757Z,96.06
2019-01-21T08:51:20.623Z,95.40
2019-01-21T08:52:06.758Z,97.85
2019-01-21T08:53:03.201Z,96.34
2019-01-21T08:54:11.259Z,95.03
2019-01-21T08:55:05.261Z,95.59
2019-01-21T08:56:07.275Z,95.21
2019-01-21T08:57:11.758Z,97.00
2019-01-21T08:58:06.602Z,94.65
2019-01-21T08:59:07.254Z,94.55
2019-01-21T09:00:08.263Z,95.31
2019-01-21T09:01:07.299Z,96.34
2019-01-21T09:02:08.212Z,98.33
2019-01-21T09:03:14.524Z,97.10
2019-01-21T09:04:06.758Z,96.15
2019-01-21T09:05:09.005Z,97.00
2019-01-21T09:06:05.362Z,98.90
2019-01-21T09:07:07.259Z,99.99
2019-01-21T09:08:06.981Z,99.99
2019-01-21T09:09:05.920Z,99.99
2019-01-21T09:10:10.809Z,99.99
2019-01-21T09:11:10.210Z,99.99
2019-01-21T09:12:08.258Z,99.99
2019-01-21T09:13:08.260Z,99.99
2019-01-21T09:14:10.306Z,99.99
2019-01-21T09:15:07.916Z,99.99
2019-01-21T09:16:07.003Z,99.99
2019-01-21T09:17:08.798Z,99.99
2019-01-21T09:18:08.401Z,99.99
2019-01-21T09:19:07.607Z,99.99
2019-01-21T09:20:10.823Z,97.68
2019-01-21T09:21:07.981Z,90.77
2019-01-21T09:22:08.184Z,91.28
2019-01-21T09:23:08.399Z,82.98
2019-01-21T09:24:08.613Z,80.43
2019-01-21T09:25:10.763Z,77.29
2019-01-21T09:26:08.972Z,75.05
2019-01-21T09:27:09.186Z,73.92
2019-01-21T09:28:10.401Z,70.31
2019-01-21T09:29:09.660Z,72.15
2019-01-21T09:30:11.763Z,69.46
2019-01-21T09:31:09.962Z,67.81
2019-01-21T09:32:10.170Z,71.55
2019-01-21T09:33:10.395Z,70.09
2019-01-21T09:34:10.495Z,68.79
2019-01-21T09:35:12.266Z,68.19
2019-01-21T09:36:10.849Z,68.04
2019-01-21T09:37:11.064Z,68.13
2019-01-21T09:38:11.265Z,67.14
2019-01-21T09:39:11.475Z,68.19
2019-01-21T09:40:11.687Z,69.61
2019-01-21T09:41:11.893Z,69.13
2019-01-21T09:42:13.757Z,68.79
2019-01-21T09:43:13.762Z,66.42
2019-01-21T09:44:14.274Z,66.08
2019-01-21T09:45:12.476Z,65.73
2019-01-21T09:46:13.713Z,64.30
2019-01-21T09:47:14.758Z,62.21
2019-01-21T09:48:12.970Z,61.68
2019-01-21T09:49:13.719Z,59.71
2019-01-21T09:50:15.263Z,61.07
2019-01-21T09:51:17.270Z,60.82
2019-01-21T09:52:13.602Z,59.08
2019-01-21T09:53:15.756Z,59.55
2019-01-21T09:54:13.972Z,59.65
2019-01-21T09:55:14.176Z,60.35
2019-01-21T09:56:16.262Z,60.57
2019-01-21T09:57:16.291Z,58.98
2019-01-21T09:58:18.273Z,57.84
2019-01-21T09:59:16.767Z,56.70
2019-01-21T10:00:15.726Z,56.05
2019-01-21T10:01:17.732Z,54.85
2019-01-21T10:02:17.259Z,54.47
2019-01-21T10:03:18.229Z,53.99
2019-01-21T10:04:18.739Z,53.73
2019-01-21T10:05:23.767Z,52.40
2019-01-21T10:06:37.147Z,51.04
2019-01-21T10:07:18.288Z,52.11
2019-01-21T10:08:20.259Z,52.78
2019-01-21T10:09:18.297Z,51.06
2019-01-21T10:10:18.773Z,51.47
2019-01-21T10:11:20.765Z,50.59
2019-01-21T10:12:18.813Z,51.06
2019-01-21T10:14:52.983Z,50.80
2019-01-21T10:15:49.958Z,50.04
2019-01-21T10:16:53.965Z,49.76
2019-01-21T10:17:49.568Z,48.99
2019-01-21T10:18:51.457Z,48.90
2019-01-21T10:19:52.266Z,48.25
2019-01-21T10:20:54.000Z,49.02
2019-01-21T10:21:50.355Z,47.78
2019-01-21T10:22:52.753Z,48.04
2019-01-21T10:23:52.950Z,47.44
2019-01-21T10:24:52.970Z,48.18
2019-01-21T10:25:51.054Z,49.23
2019-01-21T10:26:51.452Z,50.56
2019-01-21T10:27:55.244Z,51.61
2019-01-21T10:28:54.456Z,51.61
2019-01-21T10:29:53.926Z,51.23
2019-01-21T10:30:54.484Z,50.56
2019-01-21T10:31:59.439Z,50.63
2019-01-21T10:32:54.989Z,51.70
2019-01-21T10:34:04.955Z,51.58
2019-01-21T10:34:53.451Z,51.99
2019-01-21T10:35:58.452Z,51.64
2019-01-21T10:36:55.003Z,49.82
2019-01-21T10:37:54.997Z,49.54
2019-01-21T10:38:55.732Z,49.92
2019-01-21T10:39:55.740Z,50.01
2019-01-21T10:40:59.737Z,50.27
2019-01-21T10:41:56.008Z,49.99
2019-01-21T10:42:58.420Z,49.68
2019-01-21T10:43:54.947Z,50.46
2019-01-21T10:44:54.607Z,50.59
2019-01-21T10:45:56.498Z,49.56
2019-01-21T10:46:58.501Z,49.18
2019-01-21T10:47:59.002Z,49.18
2019-01-21T10:48:57.001Z,48.80
2019-01-21T10:49:57.479Z,49.08
2019-01-21T10:50:56.591Z,49.40
2019-01-21T10:51:57.529Z,47.58
2019-01-21T10:52:56.010Z,47.52
2019-01-21T10:53:56.577Z,46.66
2019-01-21T10:54:58.959Z,46.48
2019-01-21T10:55:58.536Z,46.08
2019-01-21T10:56:56.907Z,45.53
2019-01-21T10:57:57.603Z,44.87
2019-01-21T10:59:01.981Z,44.79
2019-01-21T10:59:59.059Z,44.51
2019-01-21T11:00:59.707Z,42.79
2019-01-21T11:02:13.506Z,42.43
2019-01-21T11:03:02.645Z,41.97
2019-01-21T11:04:00.977Z,40.70
2019-01-21T11:05:00.339Z,40.44
2019-01-21T11:06:00.510Z,40.25
2019-01-21T11:07:02.514Z,39.37
2019-01-21T11:08:00.489Z,39.69
2019-01-21T11:09:01.006Z,41.71
2019-01-21T11:09:59.232Z,42.79
2019-01-21T11:11:01.998Z,41.64
2019-01-21T11:12:01.509Z,40.49
2019-01-21T11:13:03.502Z,40.03
2019-01-21T11:14:03.501Z,40.52
2019-01-21T11:15:00.189Z,40.28
2019-01-21T11:16:00.406Z,40.47
2019-01-21T11:17:02.502Z,40.47
2019-01-21T11:18:01.120Z,40.83
2019-01-21T11:19:00.936Z,40.81
2019-01-21T11:20:04.171Z,41.50
2019-01-21T11:21:02.379Z,41.41
2019-01-21T11:22:02.959Z,41.69
2019-01-21T11:23:03.526Z,42.10
2019-01-21T11:24:01.847Z,42.40
2019-01-21T11:25:03.065Z,41.75
2019-01-21T11:26:06.006Z,40.69
2019-01-21T11:27:05.017Z,39.94
2019-01-21T11:28:05.473Z,39.83
2019-01-21T11:29:02.847Z,39.59
2019-01-21T11:30:02.952Z,41.16
2019-01-21T11:31:05.010Z,42.70
2019-01-21T11:32:07.009Z,43.39
2019-01-21T11:33:06.558Z,43.87
2019-01-21T11:34:04.465Z,42.72
2019-01-21T11:35:05.517Z,43.58
2019-01-21T11:36:04.092Z,43.79
2019-01-21T11:37:06.012Z,42.57
2019-01-21T11:38:06.011Z,41.83
2019-01-21T11:39:06.570Z,40.37
2019-01-21T11:40:07.705Z,40.15
2019-01-21T11:41:08.535Z,41.17
2019-01-21T11:42:14.468Z,42.05
2019-01-21T11:43:07.009Z,42.34
2019-01-21T11:44:05.575Z,42.49
2019-01-21T11:45:06.461Z,43.56
2019-01-21T11:46:05.972Z,44.18
2019-01-21T11:47:12.028Z,45.04
2019-01-21T11:48:08.030Z,44.96
2019-01-21T11:49:06.388Z,45.47
2019-01-21T11:50:10.665Z,45.61
2019-01-21T11:51:07.086Z,45.49
2019-01-21T11:52:29.511Z,46.84
2019-01-21T11:53:07.967Z,46.11
2019-01-21T11:54:23.056Z,45.84
2019-01-21T11:55:14.020Z,45.25
2019-01-21T11:56:07.735Z,45.56
2019-01-21T11:57:09.513Z,45.63
2019-01-21T11:58:08.963Z,46.09
2019-01-21T11:59:10.032Z,46.18
2019-01-21T12:00:10.014Z,46.83
2019-01-21T12:01:10.725Z,46.63
2019-01-21T12:02:25.574Z,47.02
2019-01-21T12:03:09.172Z,47.52
2019-01-21T12:04:13.018Z,46.56
2019-01-21T12:05:11.496Z,46.66
2019-01-21T12:06:10.483Z,46.97
2019-01-21T12:07:17.014Z,46.80
2019-01-21T12:08:11.809Z,45.63
2019-01-21T12:09:10.497Z,45.73
2019-01-21T12:10:10.647Z,46.23
2019-01-21T12:11:10.752Z,45.61
2019-01-21T12:12:12.005Z,45.97
2019-01-21T12:13:15.971Z,46.51
2019-01-21T12:14:11.335Z,48.35
2019-01-21T12:15:11.584Z,47.97
2019-01-21T12:16:19.511Z,47.68
2019-01-21T12:17:15.558Z,47.87
2019-01-21T12:18:15.005Z,47.61
2019-01-21T12:19:19.070Z,47.23
2019-01-21T12:20:17.124Z,46.75
2019-01-21T12:21:17.121Z,47.16
2019-01-21T12:22:17.014Z,46.01
2019-01-21T12:23:15.974Z,45.97
2019-01-21T12:24:15.042Z,45.20
2019-01-21T12:25:16.493Z,44.82
2019-01-21T12:26:13.847Z,43.44
2019-01-21T12:27:30.015Z,45.61
2019-01-21T12:28:14.986Z,46.84
2019-01-21T12:29:16.090Z,47.73
2019-01-21T12:30:16.523Z,47.71
2019-01-21T12:31:16.514Z,47.54
2019-01-21T12:32:19.986Z,47.68
2019-01-21T12:33:22.025Z,48.63
2019-01-21T12:34:17.047Z,49.23
2019-01-21T12:35:22.953Z,48.18
2019-01-21T12:36:15.817Z,47.32
2019-01-21T12:37:16.418Z,47.82
2019-01-21T12:38:22.217Z,46.68
2019-01-21T12:39:16.440Z,46.84
2019-01-21T12:40:17.562Z,46.94
2019-01-21T12:41:39.516Z,46.73
2019-01-21T12:42:17.001Z,47.58
2019-01-21T12:43:40.019Z,47.49
2019-01-21T12:44:19.015Z,48.25
2019-01-21T12:45:19.075Z,48.16
2019-01-21T12:46:17.671Z,49.42
2019-01-21T12:47:40.571Z,48.18
2019-01-21T12:48:18.179Z,48.25
2019-01-21T12:49:18.312Z,48.16
2019-01-21T12:50:23.919Z,48.18
2019-01-21T12:51:19.705Z,47.06
2019-01-21T12:52:18.922Z,47.02
2019-01-21T12:53:20.145Z,47.87
2019-01-21T12:54:19.304Z,48.85
2019-01-21T12:55:21.019Z,48.18
2019-01-21T12:56:24.019Z,48.47
2019-01-21T12:57:42.551Z,48.35
2019-01-21T12:58:23.610Z,48.75
2019-01-21T12:59:20.207Z,48.18
2019-01-21T13:00:24.045Z,48.37
2019-01-21T13:01:21.651Z,48.39
2019-01-21T13:02:24.676Z,50.79
2019-01-21T13:03:23.016Z,51.15
2019-01-21T13:04:28.030Z,52.01
2019-01-21T13:05:22.381Z,52.03
2019-01-21T13:06:25.536Z,51.27
2019-01-21T13:07:23.893Z,49.77
2019-01-21T13:08:21.959Z,49.49
2019-01-21T13:09:24.046Z,49.11
2019-01-21T13:10:23.322Z,49.75
2019-01-21T13:11:23.818Z,50.04
2019-01-21T13:12:24.516Z,49.91
2019-01-21T13:13:25.563Z,51.06
2019-01-21T13:14:24.566Z,51.62
2019-01-21T13:15:23.048Z,52.01
2019-01-21T13:16:27.627Z,52.84
2019-01-21T13:17:23.484Z,53.22
2019-01-21T13:18:26.324Z,53.76
2019-01-21T13:19:23.836Z,54.43
2019-01-21T13:20:40.024Z,54.14
2019-01-21T13:21:26.046Z,53.78
2019-01-21T13:22:36.233Z,53.88
2019-01-21T13:23:24.554Z,52.96
2019-01-21T13:24:24.799Z,53.05
2019-01-21T13:25:26.028Z,53.17
2019-01-21T13:26:25.259Z,52.13
2019-01-21T13:27:27.974Z,51.46
2019-01-21T13:28:27.522Z,50.68
2019-01-21T13:29:27.557Z,51.25
2019-01-21T13:30:37.028Z,51.43
2019-01-21T13:31:34.020Z,52.10
2019-01-21T13:32:26.355Z,51.89
2019-01-21T13:33:30.537Z,53.12
2019-01-21T13:34:26.787Z,53.69
2019-01-21T13:35:31.482Z,53.03
2019-01-21T13:36:27.085Z,53.50
2019-01-21T13:37:35.510Z,53.43
2019-01-21T13:38:29.024Z,52.96
2019-01-21T13:39:29.541Z,52.86
2019-01-21T13:40:27.768Z,52.74
2019-01-21T13:41:28.018Z,53.59
2019-01-21T13:42:28.139Z,54.26
2019-01-21T13:43:30.030Z,54.45
2019-01-21T13:44:29.476Z,54.00
2019-01-21T13:45:28.588Z,53.50
2019-01-21T13:46:32.534Z,53.78
2019-01-21T13:47:31.558Z,53.53
2019-01-21T13:48:32.050Z,52.96
2019-01-21T13:49:29.265Z,51.91
2019-01-21T13:50:37.120Z,52.84
2019-01-21T13:51:37.523Z,53.38
2019-01-21T13:52:31.555Z,54.33
2019-01-21T13:53:29.910Z,54.80
2019-01-21T13:54:32.985Z,54.80
2019-01-21T13:55:32.054Z,55.82
2019-01-21T13:56:30.543Z,56.27
2019-01-21T13:57:33.573Z,57.43
2019-01-21T13:58:30.935Z,58.10
2019-01-21T13:59:35.028Z,58.10
2019-01-21T14:00:33.027Z,57.72
2019-01-21T14:01:33.056Z,57.72
2019-01-21T14:02:32.660Z,58.36
2019-01-21T14:03:31.888Z,59.08
2019-01-21T14:04:34.056Z,60.53
2019-01-21T14:05:34.029Z,60.92
2019-01-21T14:06:32.511Z,61.49
2019-01-21T14:07:32.703Z,60.82
2019-01-21T14:08:32.941Z,61.04
2019-01-21T14:09:33.039Z,59.91
2019-01-21T14:10:35.031Z,60.10
2019-01-21T14:11:33.363Z,60.00
2019-01-21T14:12:33.594Z,59.59
2019-01-21T14:13:33.798Z,60.25
2019-01-21T14:14:34.010Z,60.63
2019-01-21T14:15:34.225Z,60.47
2019-01-21T14:16:34.448Z,60.10
2019-01-21T14:17:36.543Z,59.91
2019-01-21T14:18:34.893Z,59.71
2019-01-21T14:19:36.103Z,59.33
2019-01-21T14:20:35.312Z,59.43
2019-01-21T14:21:37.032Z,59.14
2019-01-21T14:22:35.814Z,59.62
2019-01-21T14:23:35.959Z,59.78
2019-01-21T14:24:36.163Z,60.41
2019-01-21T14:25:36.395Z,61.55
2019-01-21T14:26:36.621Z,61.46
2019-01-21T14:27:38.533Z,62.69
2019-01-21T14:28:38.537Z,63.35
2019-01-21T14:29:39.032Z,62.82
2019-01-21T14:30:37.239Z,63.01
2019-01-21T14:31:37.451Z,62.24
2019-01-21T14:32:37.706Z,61.77
2019-01-21T14:33:37.912Z,61.30
2019-01-21T14:34:38.097Z,61.11
2019-01-21T14:35:38.308Z,61.20
2019-01-21T14:36:38.518Z,61.49
2019-01-21T14:37:38.732Z,61.49
2019-01-21T14:38:38.970Z,61.39
2019-01-21T14:39:41.028Z,61.36
2019-01-21T14:40:42.781Z,62.40
2019-01-21T14:41:39.587Z,62.31
2019-01-21T14:42:39.795Z,62.97
2019-01-21T14:43:40.000Z,63.35
2019-01-21T14:44:40.210Z,63.89
2019-01-21T14:45:42.031Z,64.78
2019-01-21T14:46:42.533Z,64.40
2019-01-21T14:47:42.566Z,64.74
2019-01-21T14:48:42.399Z,65.12
2019-01-21T14:49:41.112Z,66.26
2019-01-21T14:50:41.334Z,66.83
2019-01-21T14:51:41.538Z,67.46
2019-01-21T14:52:43.541Z,68.79
2019-01-21T14:53:41.856Z,68.79
2019-01-21T14:54:42.068Z,70.20
2019-01-21T14:55:42.279Z,70.49
2019-01-21T14:56:42.504Z,71.72
2019-01-21T14:57:44.530Z,73.24
2019-01-21T14:58:42.883Z,73.61
2019-01-21T14:59:44.093Z,74.33
2019-01-21T15:00:45.041Z,75.28
2019-01-21T15:01:43.503Z,75.85
2019-01-21T15:02:43.717Z,76.89
2019-01-21T15:03:43.971Z,77.65
2019-01-21T15:04:46.070Z,79.79
2019-01-21T15:05:46.045Z,81.40
2019-01-21T15:06:45.554Z,81.87
2019-01-21T15:07:46.565Z,83.20
2019-01-21T15:08:44.911Z,84.23
2019-01-21T15:09:45.218Z,85.19
2019-01-21T15:10:45.385Z,85.57
2019-01-21T15:11:46.644Z,86.41
2019-01-21T15:12:46.808Z,86.60
2019-01-21T15:13:47.558Z,87.74
2019-01-21T15:14:46.285Z,88.49
2019-01-21T15:15:46.473Z,88.49
2019-01-21T15:16:50.970Z,88.12
2019-01-21T15:17:50.592Z,87.84
2019-01-21T15:18:48.581Z,87.17
2019-01-21T15:19:49.032Z,87.36
2019-01-21T15:20:57.414Z,87.08
2019-01-21T15:21:59.164Z,87.36
2019-01-21T15:22:49.537Z,86.89
2019-01-21T15:23:50.526Z,86.89
2019-01-21T15:24:52.035Z,87.27
2019-01-21T15:25:48.253Z,87.08
2019-01-21T15:26:50.082Z,87.27
2019-01-21T15:27:49.649Z,87.93
2019-01-21T15:28:50.632Z,88.78
2019-01-21T15:29:55.552Z,89.44
2019-01-21T15:30:53.044Z,89.87
2019-01-21T15:31:49.228Z,91.20
2019-01-21T15:32:51.066Z,91.34
2019-01-21T15:33:49.544Z,91.20
2019-01-21T15:34:49.819Z,91.77
2019-01-21T15:35:51.594Z,93.09
2019-01-21T15:37:13.031Z,94.32
2019-01-21T15:37:52.086Z,95.26
2019-01-21T15:38:53.065Z,96.50
2019-01-21T15:39:52.555Z,97.63
2019-01-21T15:40:54.603Z,98.67
2019-01-21T15:41:51.086Z,99.05
2019-01-21T15:42:55.141Z,99.95
2019-01-21T15:43:53.128Z,99.99
2019-01-21T15:44:53.562Z,99.99
2019-01-21T15:45:52.047Z,99.99
2019-01-21T15:46:53.507Z,99.99
2019-01-21T15:47:56.972Z,99.99
2019-01-21T15:48:56.035Z,99.99
2019-01-21T15:50:15.075Z,99.99
2019-01-21T15:50:52.523Z,99.99
2019-01-21T15:51:54.530Z,99.99
2019-01-21T15:53:14.885Z,99.99
2019-01-21T15:53:53.496Z,99.99
2019-01-21T15:54:58.033Z,99.99
2019-01-21T15:55:53.265Z,99.99
2019-01-21T15:56:57.624Z,99.99
2019-01-21T15:57:53.609Z,99.99
2019-01-21T15:58:53.715Z,99.99
2019-01-21T15:59:53.978Z,99.99
2019-01-21T16:00:58.054Z,99.99
2019-01-21T16:01:56.073Z,99.99
2019-01-21T16:02:54.419Z,99.99
2019-01-21T16:03:54.629Z,99.99
2019-01-21T16:04:54.874Z,99.99
2019-01-21T16:05:56.538Z,99.99
2019-01-21T16:06:58.009Z,99.99
2019-01-21T16:08:24.058Z,99.99
2019-01-21T16:09:02.148Z,99.99
2019-01-21T16:09:57.537Z,99.99
2019-01-21T16:11:21.484Z,99.99
2019-01-21T16:11:57.534Z,99.99
2019-01-21T16:12:58.045Z,99.99
2019-01-21T16:14:00.043Z,99.99
2019-01-21T16:15:12.069Z,99.99
2019-01-21T16:16:04.533Z,99.99
2019-01-21T16:17:19.583Z,99.99
2019-01-21T16:17:58.573Z,99.99
2019-01-21T16:19:00.529Z,99.99
2019-01-21T16:20:00.857Z,99.99
2019-01-21T16:20:57.324Z,99.99
2019-01-21T16:21:58.525Z,99.99
2019-01-21T16:23:01.534Z,99.99
2019-01-21T16:23:59.530Z,99.99
2019-01-21T16:25:02.049Z,99.99
2019-01-21T16:26:03.023Z,99.99
2019-01-21T16:27:00.521Z,99.99
2019-01-21T16:28:27.568Z,99.99
2019-01-21T16:28:58.775Z,99.99
2019-01-21T16:30:09.788Z,99.99
2019-01-21T16:31:03.060Z,99.99
2019-01-21T16:32:02.030Z,99.99
2019-01-21T16:33:00.024Z,99.99
2019-01-21T16:34:01.574Z,99.99
2019-01-21T16:35:01.499Z,99.99
2019-01-21T16:36:01.879Z,99.99
2019-01-21T16:37:00.212Z,99.99
2019-01-21T16:38:02.030Z,99.99
2019-01-21T16:39:02.550Z,99.99
2019-01-21T16:40:00.747Z,99.99
2019-01-21T16:41:00.986Z,99.99
2019-01-21T16:42:03.035Z,99.99
2019-01-21T16:43:03.042Z,99.99
2019-01-21T16:44:02.491Z,99.99
2019-01-21T16:45:03.551Z,99.99
2019-01-21T16:46:03.538Z,99.99
2019-01-21T16:47:03.128Z,99.99
2019-01-21T16:48:03.202Z,99.99
2019-01-21T16:49:04.045Z,99.99
2019-01-21T16:50:06.072Z,99.99
2019-01-21T16:51:05.020Z,99.99
2019-01-21T16:52:07.494Z,99.99
2019-01-21T16:53:02.957Z,99.99
2019-01-21T16:54:03.189Z,99.99
2019-01-21T16:55:04.313Z,99.99
2019-01-21T16:56:05.991Z,99.99
2019-01-21T16:57:06.532Z,99.99
2019-01-21T16:58:05.541Z,99.99
2019-01-21T16:59:04.340Z,99.99
2019-01-21T17:00:06.061Z,99.99
2019-01-21T17:01:06.032Z,99.99
2019-01-21T17:02:08.030Z,99.99
2019-01-21T17:03:04.532Z,99.99
2019-01-21T17:04:07.495Z,99.99
2019-01-21T17:05:08.949Z,99.99
2019-01-21T17:06:06.556Z,99.99
2019-01-21T17:07:08.525Z,99.99
2019-01-21T17:08:07.035Z,99.99
2019-01-21T17:09:06.769Z,99.99
2019-01-21T17:10:07.566Z,99.99
2019-01-21T17:11:05.902Z,99.99
2019-01-21T17:12:22.105Z,99.99
2019-01-21T17:13:09.072Z,99.99
2019-01-21T17:14:09.036Z,99.99
2019-01-21T17:15:08.538Z,99.99
2019-01-21T17:16:06.745Z,99.99
2019-01-21T17:17:07.946Z,99.99
2019-01-21T17:18:12.990Z,99.99
2019-01-21T17:19:09.251Z,99.99
2019-01-21T17:21:41.132Z,99.99
2019-01-21T17:22:56.380Z,99.99
2019-01-21T17:23:40.704Z,99.99
2019-01-21T17:25:02.629Z,99.99
2019-01-21T17:25:41.660Z,99.99
2019-01-21T17:26:43.634Z,99.99
2019-01-21T17:27:40.848Z,99.99
2019-01-21T17:28:44.948Z,99.99
2019-01-21T17:29:43.586Z,99.99
2019-01-21T17:30:43.671Z,99.99
2019-01-21T17:31:44.866Z,99.99
2019-01-21T17:33:10.379Z,99.99
2019-01-21T17:33:46.108Z,99.99
2019-01-21T17:34:44.089Z,99.99
2019-01-21T17:35:41.550Z,99.99
2019-01-21T17:36:44.393Z,99.99
2019-01-21T17:37:45.084Z,99.99
2019-01-21T17:38:44.642Z,99.99
2019-01-21T17:39:46.868Z,99.99
2019-01-21T17:40:42.429Z,99.99
2019-01-21T17:41:44.175Z,99.79
2019-01-21T17:42:45.582Z,99.99
2019-01-21T17:43:43.620Z,99.99
2019-01-21T17:44:45.588Z,99.99
2019-01-21T17:45:48.589Z,99.99
2019-01-21T17:46:44.098Z,99.99
2019-01-21T17:47:43.560Z,99.99
2019-01-21T17:49:09.632Z,99.99
2019-01-21T17:49:47.629Z,99.99
2019-01-21T17:50:44.691Z,99.99
2019-01-21T17:51:46.132Z,99.99
2019-01-21T17:52:44.326Z,99.99
2019-01-21T17:53:53.473Z,99.99
2019-01-21T17:54:44.709Z,99.99
2019-01-21T17:55:46.080Z,99.99
2019-01-21T17:57:22.010Z,99.99
2019-01-21T17:57:46.788Z,99.99
2019-01-21T17:58:47.153Z,99.99
2019-01-21T17:59:48.075Z,99.51
2019-01-21T18:00:49.633Z,99.88
2019-01-21T18:01:47.080Z,99.98
2019-01-21T18:02:47.579Z,99.32
2019-01-21T18:03:47.634Z,98.47
2019-01-21T18:04:48.128Z,98.47
2019-01-21T18:05:50.092Z,99.88
2019-01-21T18:07:02.629Z,99.99
2019-01-21T18:07:46.932Z,99.99
2019-01-21T18:08:49.129Z,98.28
2019-01-21T18:09:47.342Z,96.96
2019-01-21T18:10:49.169Z,97.81
2019-01-21T18:12:03.635Z,97.81
2019-01-21T18:12:51.079Z,98.10
2019-01-21T18:13:49.628Z,98.57
2019-01-21T18:14:49.102Z,98.85
2019-01-21T18:15:50.748Z,98.28
2019-01-21T18:16:49.591Z,96.91
2019-01-21T18:18:11.582Z,98.14
2019-01-21T18:18:49.925Z,98.38
2019-01-21T18:19:53.600Z,99.46
2019-01-21T18:20:51.128Z,99.55
2019-01-21T18:21:51.131Z,98.80
2019-01-21T18:22:53.147Z,97.85
2019-01-21T18:23:53.107Z,96.25
2019-01-21T18:24:49.702Z,96.25
2019-01-21T18:25:49.909Z,95.40
2019-01-21T18:26:51.580Z,95.21
2019-01-21T18:27:52.137Z,95.12
2019-01-21T18:28:52.153Z,96.06
2019-01-21T18:29:52.130Z,95.03
2019-01-21T18:30:50.708Z,96.25
2019-01-21T18:31:52.633Z,96.25
2019-01-21T18:33:03.577Z,95.40
2019-01-21T18:33:51.319Z,95.59
2019-01-21T18:34:51.497Z,96.34
2019-01-21T18:35:55.627Z,96.81
2019-01-21T18:36:55.887Z,96.53
2019-01-21T18:37:53.080Z,96.25
2019-01-21T18:38:54.140Z,95.03
2019-01-21T18:39:53.086Z,92.85
2019-01-21T18:40:52.565Z,92.29
2019-01-21T18:41:53.760Z,92.76
2019-01-21T18:42:55.054Z,91.82
2019-01-21T18:43:56.735Z,90.40
2019-01-21T18:44:54.693Z,89.08
2019-01-21T18:47:29.380Z,86.06
2019-01-21T18:48:26.478Z,86.53
2019-01-21T18:49:27.589Z,84.83
2019-01-21T18:50:27.824Z,85.11
2019-01-21T18:51:27.022Z,85.96
2019-01-21T18:52:29.092Z,86.82
2019-01-21T18:53:28.068Z,85.59
2019-01-21T18:54:27.449Z,84.27
2019-01-21T18:55:28.178Z,82.19
2019-01-21T18:56:49.647Z,82.28
2019-01-21T18:57:28.624Z,83.33
2019-01-21T18:58:27.078Z,85.59
2019-01-21T18:59:29.114Z,87.57
2019-01-21T19:00:29.306Z,89.27
2019-01-21T19:01:28.184Z,90.68
2019-01-21T19:02:29.672Z,91.06
2019-01-21T19:03:32.273Z,90.50
2019-01-21T19:04:28.614Z,91.06
2019-01-21T19:05:30.077Z,90.97
2019-01-21T19:06:29.574Z,90.78
2019-01-21T19:07:29.864Z,88.60
2019-01-21T19:08:30.623Z,87.29
2019-01-21T19:09:54.074Z,85.96
2019-01-21T19:10:45.859Z,85.96
2019-01-21T19:11:31.147Z,87.29
2019-01-21T19:12:32.357Z,88.70
2019-01-21T19:13:29.561Z,88.04
2019-01-21T19:14:33.659Z,87.57
2019-01-21T19:15:34.575Z,88.04
2019-01-21T19:16:33.072Z,88.51
2019-01-21T19:17:45.620Z,88.98
2019-01-21T19:18:33.568Z,89.93
2019-01-21T19:19:55.115Z,91.35
2019-01-21T19:20:30.781Z,89.45
2019-01-21T19:21:30.664Z,89.74
2019-01-21T19:22:33.347Z,90.97
2019-01-21T19:23:38.644Z,92.19
2019-01-21T19:24:39.711Z,92.10
2019-01-21T19:25:35.159Z,92.29
2019-01-21T19:26:31.489Z,91.72
2019-01-21T19:27:36.140Z,91.11
2019-01-21T19:28:35.623Z,90.55
2019-01-21T19:29:33.644Z,87.05
2019-01-21T19:30:36.118Z,85.45
2019-01-21T19:31:34.129Z,84.60
2019-01-21T19:32:55.974Z,84.79
2019-01-21T19:33:33.584Z,84.51
2019-01-21T19:34:37.995Z,85.07
2019-01-21T19:35:37.214Z,86.02
2019-01-21T19:36:33.347Z,85.83
2019-01-21T19:37:38.169Z,86.58
2019-01-21T19:38:33.493Z,86.68
2019-01-21T19:39:35.618Z,87.15
2019-01-21T19:41:35.580Z,89.03
2019-01-21T19:42:42.151Z,89.32
2019-01-21T19:43:35.567Z,87.99
2019-01-21T19:44:55.649Z,87.99
2019-01-21T19:45:35.687Z,88.84
2019-01-21T19:46:36.914Z,87.81
2019-01-21T19:47:37.664Z,86.87